This is the latest recevied weather packets stored in our database for station/object KE0FIN. If no packets are shown the sender has not sent any weather packets the latest 10 day(s).
| Time | Temp. | Humidity | Pressure | Rain* | Wind** | Luminosity | Snow |
|---|---|---|---|---|---|---|---|
| 1777489004 | 17.22° C | 51% | 1071.1 hPa | 0 mm | - | 197 W/m² | - |
| 1777488701 | 16.11° C | 54% | 1071 hPa | 0 mm | - | 229 W/m² | - |
| 1777488399 | 15.56° C | 55% | 1071.3 hPa | 0 mm | - | 271 W/m² | - |
| 1777488097 | 15.56° C | 55% | 1071.1 hPa | 0 mm | - | 235 W/m² | - |
| 1777487795 | 16.11° C | 56% | 1071.4 hPa | 0 mm | - | 295 W/m² | - |
| 1777487492 | 15.56° C | 56% | 1071.2 hPa | 0 mm | - | 165 W/m² | - |
| 1777487190 | 15° C | 59% | 1071.4 hPa | 0 mm | - | 204 W/m² | - |
| 1777486885 | 14.44° C | 57% | 1071.7 hPa | 0 mm | - | 272 W/m² | - |
| 1777486582 | 14.44° C | 58% | 1071.4 hPa | 0 mm | - | 198 W/m² | - |
| 1777486280 | 15° C | 59% | 1071.6 hPa | 0 mm | - | 204 W/m² | - |
| 1777485978 | 14.44° C | 60% | 1071.4 hPa | 0 mm | - | 209 W/m² | - |
| 1777485674 | 15° C | 59% | 1071.7 hPa | 0 mm | - | 207 W/m² | - |
| 1777485369 | 15° C | 60% | 1071.8 hPa | 0 mm | - | 170 W/m² | - |
| 1777485065 | 15° C | 58% | 1072 hPa | 0 mm | - | 163 W/m² | - |
| 1777484763 | 15° C | 59% | 1072 hPa | 0 mm | - | 186 W/m² | - |
| 1777484459 | 14.44° C | 60% | 1071.9 hPa | 0 mm | - | 192 W/m² | - |
| 1777484156 | 14.44° C | 59% | 1072.1 hPa | 0 mm | - | 192 W/m² | - |
| 1777483852 | 14.44° C | 59% | 1072.3 hPa | 0 mm | - | 205 W/m² | - |
| 1777483548 | 14.44° C | 60% | 1072.4 hPa | 0 mm | - | 122 W/m² | - |
| 1777483243 | 14.44° C | 59% | 1072.4 hPa | 0 mm | - | 108 W/m² | - |
| 1777482940 | 14.44° C | 60% | 1072.4 hPa | 0 mm | - | 73 W/m² | - |
| 1777482636 | 13.33° C | 64% | 1072.6 hPa | 0 mm | - | 74 W/m² | - |
| 1777482333 | 13.89° C | 62% | 1072.7 hPa | 0 mm | - | 83 W/m² | - |
| 1777482031 | 13.33° C | 62% | 1072.8 hPa | 0 mm | - | 62 W/m² | - |
| 1777481728 | 13.89° C | 62% | 1072.7 hPa | 0 mm | - | 65 W/m² | - |
* Rain latest hour (hover to see other rain measurements)
** Current wind speed in m/s (hover to see current wind gust speed)